• Join FlightAware (Why Join?)
  • Login
  • US Flag GB Flag 
00:10 EST


 

Airport Tracker/Info


-or-


 

Live Flight TrackerFlight Track Log ✈ AWE3921 ✈ 17-Apr-2013 ✈ KDCA - KCAE

Flight Track Log - Related Links

Times and Time Zones

All times are in EDT time to prevent confusion due to time zone crossing. See the AWE3921 flight status page for this flight to view local times or setup timezone preferences in your user account.

Time Position Orientation Groundspeed Altitude Reporting Facility
EDT Latitude Longitude Course Direction KTS MPH feet Rate Location/Type
14:30 38.5875 -77.2744 215° Southwest  Level Estimated
14:31 38.4992 -77.3529 215° Southwest  Level Estimated
14:32 38.4109 -77.4312 215° Southwest  Level Estimated
14:33 38.3226 -77.5094 215° Southwest  Level Estimated
14:34 38.2342 -77.5873 215° Southwest  Level Estimated
14:35 38.1457 -77.6650 215° Southwest  Level Estimated
14:36 38.0572 -77.7426 215° Southwest  Level Estimated
14:37 37.9686 -77.8200 215° Southwest  Level Estimated
14:38 37.8800 -77.8972 215° Southwest  Level Estimated
14:39 37.7914 -77.9742 214° Southwest  Level Estimated
14:40 37.7027 -78.0510 214° Southwest  Level Estimated
14:41 37.6139 -78.1276 214° Southwest  Level Estimated
14:42 37.5251 -78.2041 214° Southwest  Level Estimated
14:43 37.4362 -78.2803 214° Southwest  Level Estimated
14:44 37.3473 -78.3564 214° Southwest  Level Estimated
14:45 37.2584 -78.4323 214° Southwest  Level Estimated
14:46 37.1694 -78.5081 214° Southwest  Level Estimated
14:47 37.0803 -78.5836 214° Southwest  Level Estimated
14:48 36.9912 -78.6590 214° Southwest  Level Estimated
14:49 36.9021 -78.7342 214° Southwest  Level Estimated
14:50 36.8129 -78.8092 214° Southwest  Level Estimated
14:51 36.7236 -78.8841 214° Southwest  Level Estimated
14:52 36.6343 -78.9587 214° Southwest  Level Estimated
14:53 36.5450 -79.0332 214° Southwest  Level Estimated
14:54 36.4556 -79.1076 214° Southwest  Level Estimated
14:55 36.3662 -79.1817 214° Southwest  Level Estimated
14:56 36.2767 -79.2557 214° Southwest  Level Estimated
14:57 36.1872 -79.3295 214° Southwest  Level Estimated
14:58 36.0976 -79.4032 214° Southwest  Level Estimated
14:59 36.0080 -79.4767 214° Southwest  Level Estimated
15:00 35.9184 -79.5500 214° Southwest  Level Estimated
15:01 35.8287 -79.6231 213° Southwest  Level Estimated
15:02 35.7389 -79.6961 213° Southwest  Level Estimated
15:03 35.6492 -79.7689 213° Southwest  Level Estimated
15:04 35.5593 -79.8416 213° Southwest  Level Estimated
15:05 35.4695 -79.9141 213° Southwest  Level Estimated
15:06 35.3795 -79.9864 213° Southwest  Level Estimated
15:07 35.2896 -80.0586 213° Southwest  Level Estimated
15:08 35.1996 -80.1306 213° Southwest  Level Estimated
15:09 35.1095 -80.2024 213° Southwest  Level Estimated
15:10 35.0195 -80.2741 213° Southwest  Level Estimated
15:11 34.9293 -80.3456 213° Southwest  Level Estimated
15:12 34.8391 -80.4170 213° Southwest  Level Estimated
15:13 34.7489 -80.4883 213° Southwest  Level Estimated
15:14 34.6587 -80.5593 213° Southwest  Level Estimated
15:15 34.5684 -80.6302 213° Southwest  Level Estimated
15:16 34.4781 -80.7010 213° Southwest  Level Estimated
15:17 34.3877 -80.7716 213° Southwest  Level Estimated
15:18 34.2973 -80.8420 213° Southwest  Level Estimated
15:19 34.2068 -80.9123 213° Southwest  Level Estimated
15:20 34.1163 -80.9825 213° Southwest  Level Estimated
15:21 34.0360 -81.0446 213° Southwest  Level Estimated
15:22 33.9557 -81.1066 213° Southwest  Level Estimated
15:23 33.9388 -81.1195 213° Southwest  Level Estimated
15:24 33.9388 -81.1195 29° Northeast  Level Estimated
15:25 33.9388 -81.1195 29° Northeast  Level Estimated
15:26 33.9388 -81.1195 29° Northeast  Level Estimated
15:27 33.9388 -81.1195 29° Northeast  Level Estimated
15:28 33.9388 -81.1195 29° Northeast  Level Estimated
15:29 33.9388 -81.1195 29° Northeast  Level Estimated
15:30 33.9388 -81.1195 29° Northeast  Level Estimated
15:31 33.9388 -81.1195 29° Northeast  Level Estimated
15:32 33.9388 -81.1195 29° Northeast  Level Estimated
15:33 33.9388 -81.1195 29° Northeast  Level Estimated
15:34 33.9388 -81.1195 29° Northeast  Level Estimated
15:35 33.9388 -81.1195 29° Northeast  Level Estimated
15:36 33.9388 -81.1195 29° Northeast  Level Estimated